createdAt,value
2017-11-27T00:00:12.897Z,4.03
2017-11-27T00:01:13.495Z,4.05
2017-11-27T00:02:14.132Z,3.99
2017-11-27T00:03:14.714Z,4.17
2017-11-27T00:04:15.315Z,4.05
2017-11-27T00:05:15.927Z,4.05
2017-11-27T00:06:16.519Z,4.06
2017-11-27T00:07:17.106Z,4.08
2017-11-27T00:08:17.699Z,4.05
2017-11-27T00:09:18.289Z,4.05
2017-11-27T00:10:18.884Z,4.05
2017-11-27T00:11:19.496Z,4.06
2017-11-27T00:12:20.097Z,4.05
2017-11-27T00:13:20.696Z,4.08
2017-11-27T00:14:21.311Z,4.08
2017-11-27T00:15:21.912Z,4.13
2017-11-27T00:16:22.510Z,4.16
2017-11-27T00:17:23.134Z,4.10
2017-11-27T00:18:23.731Z,4.06
2017-11-27T00:19:24.325Z,4.16
2017-11-27T00:20:24.928Z,4.13
2017-11-27T00:21:25.529Z,4.09
2017-11-27T00:22:26.144Z,4.09
2017-11-27T00:23:26.755Z,4.08
2017-11-27T00:24:27.362Z,4.09
2017-11-27T00:25:27.957Z,4.08
2017-11-27T00:26:28.570Z,4.10
2017-11-27T00:27:29.193Z,4.13
2017-11-27T00:28:29.779Z,4.13
2017-11-27T00:29:30.381Z,4.06
2017-11-27T00:30:30.975Z,4.14
2017-11-27T00:31:31.581Z,4.08
2017-11-27T00:32:32.196Z,4.16
2017-11-27T00:33:32.822Z,4.10
2017-11-27T00:34:33.404Z,4.18
2017-11-27T00:35:34.010Z,4.13
2017-11-27T00:36:34.621Z,4.10
2017-11-27T00:37:35.260Z,4.08
2017-11-27T00:38:35.822Z,4.18
2017-11-27T00:39:36.430Z,4.16
2017-11-27T00:40:37.032Z,4.16
2017-11-27T00:41:37.639Z,4.17
2017-11-27T00:42:38.260Z,4.03
2017-11-27T00:43:38.840Z,4.14
2017-11-27T00:44:39.436Z,4.14
2017-11-27T00:45:40.044Z,4.09
2017-11-27T00:46:40.639Z,4.06
2017-11-27T00:47:41.250Z,4.02
2017-11-27T00:48:41.829Z,4.02
2017-11-27T00:49:42.434Z,3.98
2017-11-27T00:50:43.028Z,4.02
2017-11-27T00:51:43.637Z,3.98
2017-11-27T00:52:44.260Z,4.02
2017-11-27T00:53:44.836Z,3.99
2017-11-27T00:54:45.428Z,4.05
2017-11-27T00:55:46.024Z,4.06
2017-11-27T00:56:46.638Z,3.93
2017-11-27T00:57:47.246Z,3.85
2017-11-27T00:58:47.851Z,3.90
2017-11-27T00:59:48.458Z,3.90
2017-11-27T01:01:33.273Z,3.90
2017-11-27T01:02:33.877Z,3.93
2017-11-27T01:03:34.477Z,3.90
2017-11-27T01:04:35.074Z,3.87
2017-11-27T01:05:35.669Z,3.87
2017-11-27T01:06:36.271Z,3.85
2017-11-27T01:07:36.879Z,3.93
2017-11-27T01:08:37.487Z,3.98
2017-11-27T01:09:38.063Z,3.93
2017-11-27T01:10:38.670Z,4.00
2017-11-27T01:11:39.245Z,3.99
2017-11-27T01:12:39.851Z,4.00
2017-11-27T01:13:40.453Z,3.96
2017-11-27T01:14:41.044Z,4.03
2017-11-27T01:15:41.646Z,4.00
2017-11-27T01:16:42.245Z,4.08
2017-11-27T01:17:42.860Z,4.10
2017-11-27T01:18:43.463Z,4.13
2017-11-27T01:19:44.066Z,4.09
2017-11-27T01:20:44.666Z,4.10
2017-11-27T01:21:45.269Z,4.10
2017-11-27T01:22:45.871Z,4.17
2017-11-27T01:23:46.476Z,4.10
2017-11-27T01:24:47.073Z,4.18
2017-11-27T01:25:47.677Z,4.10
2017-11-27T01:26:48.300Z,4.21
2017-11-27T01:27:48.923Z,4.16
2017-11-27T01:28:49.528Z,4.21
2017-11-27T01:29:50.150Z,4.18
2017-11-27T01:30:50.753Z,4.26
2017-11-27T01:31:51.358Z,4.18
2017-11-27T01:32:51.962Z,4.20
2017-11-27T01:33:52.573Z,4.13
2017-11-27T01:34:53.191Z,4.13
2017-11-27T01:35:53.795Z,4.17
2017-11-27T01:36:54.397Z,4.20
2017-11-27T01:37:54.990Z,4.17
2017-11-27T01:38:55.594Z,4.24
2017-11-27T01:39:56.196Z,4.26
2017-11-27T01:40:56.807Z,4.28
2017-11-27T01:41:57.410Z,4.18
2017-11-27T01:42:58.019Z,4.14
2017-11-27T01:43:58.607Z,4.17
2017-11-27T01:44:59.222Z,4.26
2017-11-27T01:45:59.831Z,4.14
2017-11-27T01:47:00.444Z,4.14
2017-11-27T01:48:01.039Z,4.16
2017-11-27T01:49:01.654Z,4.17
2017-11-27T01:50:02.233Z,4.16
2017-11-27T01:51:02.828Z,4.17
2017-11-27T01:52:03.427Z,4.13
2017-11-27T01:53:04.028Z,4.17
2017-11-27T01:54:04.625Z,4.18
2017-11-27T01:55:05.224Z,4.20
2017-11-27T01:56:05.814Z,4.08
2017-11-27T01:57:06.426Z,4.16
2017-11-27T01:58:07.005Z,4.13
2017-11-27T01:59:07.605Z,4.17
2017-11-27T02:00:08.213Z,4.27
2017-11-27T02:01:08.804Z,4.09
2017-11-27T02:02:09.424Z,4.18
2017-11-27T02:03:10.012Z,4.14
2017-11-27T02:04:10.600Z,4.14
2017-11-27T02:05:11.202Z,4.13
2017-11-27T02:06:11.805Z,4.18
2017-11-27T02:07:12.417Z,4.16
2017-11-27T02:08:13.021Z,4.17
2017-11-27T02:09:13.612Z,4.10
2017-11-27T02:10:14.209Z,4.20
2017-11-27T02:11:14.813Z,4.09
2017-11-27T02:12:15.418Z,4.14
2017-11-27T02:13:16.027Z,4.13
2017-11-27T02:14:16.637Z,4.10
2017-11-27T02:15:17.234Z,4.18
2017-11-27T02:16:17.837Z,4.05
2017-11-27T02:17:18.446Z,4.03
2017-11-27T02:18:19.052Z,4.00
2017-11-27T02:19:19.664Z,3.96
2017-11-27T02:20:20.269Z,3.99
2017-11-27T02:21:20.874Z,3.99
2017-11-27T02:22:21.484Z,3.90
2017-11-27T02:23:22.076Z,3.90
2017-11-27T02:24:22.670Z,3.91
2017-11-27T02:25:23.272Z,3.88
2017-11-27T02:26:23.862Z,3.90
2017-11-27T02:27:24.463Z,3.85
2017-11-27T02:28:25.059Z,3.85
2017-11-27T02:29:25.663Z,3.81
2017-11-27T02:30:26.258Z,3.82
2017-11-27T02:31:26.863Z,3.82
2017-11-27T02:32:27.454Z,3.77
2017-11-27T02:33:28.057Z,3.78
2017-11-27T02:34:28.646Z,3.85
2017-11-27T02:35:29.245Z,3.80
2017-11-27T02:36:29.839Z,3.72
2017-11-27T02:37:30.436Z,3.78
2017-11-27T02:38:31.032Z,3.69
2017-11-27T02:39:31.645Z,3.70
2017-11-27T02:40:32.237Z,3.70
2017-11-27T02:41:32.839Z,3.66
2017-11-27T02:42:33.443Z,3.66
2017-11-27T02:43:34.043Z,3.63
2017-11-27T02:44:34.645Z,3.60
2017-11-27T02:45:35.256Z,3.59
2017-11-27T02:46:35.844Z,3.55
2017-11-27T02:47:36.446Z,3.57
2017-11-27T02:48:37.055Z,3.52
2017-11-27T02:49:37.659Z,3.45
2017-11-27T02:50:38.256Z,3.62
2017-11-27T02:51:38.847Z,3.55
2017-11-27T02:52:39.443Z,3.52
2017-11-27T02:53:40.048Z,3.52
2017-11-27T02:54:40.660Z,3.45
2017-11-27T02:55:41.255Z,3.48
2017-11-27T02:56:41.861Z,3.41
2017-11-27T02:57:42.448Z,3.55
2017-11-27T02:58:43.053Z,3.51
2017-11-27T02:59:43.641Z,3.51
2017-11-27T03:00:44.241Z,3.46
2017-11-27T03:01:44.832Z,3.44
2017-11-27T03:02:45.443Z,3.39
2017-11-27T03:03:46.047Z,3.41
2017-11-27T03:04:46.646Z,3.39
2017-11-27T03:05:47.253Z,3.37
2017-11-27T03:06:47.861Z,3.41
2017-11-27T03:07:48.455Z,3.42
2017-11-27T03:08:49.047Z,3.30
2017-11-27T03:09:49.635Z,3.42
2017-11-27T03:10:50.224Z,3.32
2017-11-27T03:11:50.822Z,3.48
2017-11-27T03:12:51.423Z,3.49
2017-11-27T03:13:52.030Z,3.49
2017-11-27T03:14:52.632Z,3.51
2017-11-27T03:15:53.238Z,3.51
2017-11-27T03:16:53.833Z,3.46
2017-11-27T03:17:54.420Z,3.41
2017-11-27T03:18:55.022Z,3.41
2017-11-27T03:19:55.626Z,3.39
2017-11-27T03:20:56.232Z,3.39
2017-11-27T03:21:56.834Z,3.33
2017-11-27T03:22:57.439Z,3.41
2017-11-27T03:23:58.052Z,3.33
2017-11-27T03:24:58.634Z,3.41
2017-11-27T03:25:59.242Z,3.42
2017-11-27T03:26:59.831Z,3.32
2017-11-27T03:28:00.427Z,3.33
2017-11-27T03:29:01.041Z,3.39
2017-11-27T03:30:01.624Z,3.30
2017-11-27T03:31:02.229Z,3.30
2017-11-27T03:32:02.820Z,3.35
2017-11-27T03:33:03.419Z,3.35
2017-11-27T03:34:04.026Z,3.30
2017-11-27T03:35:04.627Z,3.27
2017-11-27T03:36:05.228Z,3.27
2017-11-27T03:37:05.824Z,3.33
2017-11-27T03:38:06.410Z,3.27
2017-11-27T03:39:07.010Z,3.30
2017-11-27T03:40:07.593Z,3.26
2017-11-27T03:41:08.199Z,3.25
2017-11-27T03:42:08.803Z,3.33
2017-11-27T03:43:09.400Z,3.30
2017-11-27T03:44:09.988Z,3.33
2017-11-27T03:45:10.598Z,3.37
2017-11-27T03:46:11.182Z,3.33
2017-11-27T03:47:11.782Z,3.32
2017-11-27T03:48:12.384Z,3.30
2017-11-27T03:49:12.976Z,3.30
2017-11-27T03:50:13.574Z,3.30
2017-11-27T03:51:14.172Z,3.33
2017-11-27T03:52:14.769Z,3.35
2017-11-27T03:53:15.363Z,3.33
2017-11-27T03:54:15.951Z,3.27
2017-11-27T03:55:16.547Z,3.26
2017-11-27T03:56:17.142Z,3.29
2017-11-27T03:57:17.739Z,3.27
2017-11-27T03:58:18.349Z,3.23
2017-11-27T03:59:18.932Z,3.19
2017-11-27T04:00:19.533Z,3.25
2017-11-27T04:01:20.148Z,3.29
2017-11-27T04:02:20.753Z,3.37
2017-11-27T04:03:21.356Z,3.27
2017-11-27T04:04:21.946Z,3.39
2017-11-27T04:05:22.540Z,3.33
2017-11-27T04:06:23.132Z,3.41
2017-11-27T04:07:23.727Z,3.35
2017-11-27T04:08:24.353Z,3.46
2017-11-27T04:09:24.932Z,3.39
2017-11-27T04:10:25.533Z,3.45
2017-11-27T04:11:26.135Z,3.42
2017-11-27T04:12:26.748Z,3.39
2017-11-27T04:13:27.359Z,3.39
2017-11-27T04:14:27.968Z,3.39
2017-11-27T04:15:28.570Z,3.26
2017-11-27T04:16:29.173Z,3.37
2017-11-27T04:17:29.772Z,3.41
2017-11-27T04:18:30.387Z,3.44
2017-11-27T04:19:30.974Z,3.46
2017-11-27T04:20:31.576Z,3.45
2017-11-27T04:21:32.173Z,3.49
2017-11-27T04:22:32.766Z,3.46
2017-11-27T04:23:33.366Z,3.54
2017-11-27T04:24:33.963Z,3.51
2017-11-27T04:25:34.568Z,3.37
2017-11-27T04:26:35.156Z,3.52
2017-11-27T04:27:35.749Z,3.49
2017-11-27T04:28:36.357Z,3.44
2017-11-27T04:29:36.958Z,3.49
2017-11-27T04:30:37.567Z,3.45
2017-11-27T04:31:38.178Z,3.49
2017-11-27T04:32:38.778Z,3.41
2017-11-27T04:33:39.389Z,3.39
2017-11-27T04:34:39.994Z,3.35
2017-11-27T04:35:40.614Z,3.32
2017-11-27T04:36:41.212Z,3.29
2017-11-27T04:37:41.795Z,3.27
2017-11-27T04:38:42.389Z,3.29
2017-11-27T04:39:42.987Z,3.32
2017-11-27T04:40:43.584Z,3.29
2017-11-27T04:41:44.188Z,3.29
2017-11-27T04:42:44.777Z,3.30
2017-11-27T04:43:45.396Z,3.30
2017-11-27T04:44:45.999Z,3.39
2017-11-27T04:45:46.606Z,3.35
2017-11-27T04:46:47.198Z,3.39
2017-11-27T04:47:47.800Z,3.39
2017-11-27T04:48:48.408Z,3.42
2017-11-27T04:49:49.013Z,3.41
2017-11-27T04:50:49.616Z,3.52
2017-11-27T04:51:50.227Z,3.41
2017-11-27T04:52:50.833Z,3.49
2017-11-27T04:53:51.446Z,3.46
2017-11-27T04:54:52.051Z,3.52
2017-11-27T04:55:52.661Z,3.46
2017-11-27T04:56:53.281Z,3.60
2017-11-27T04:57:53.874Z,3.60
2017-11-27T04:58:54.483Z,3.62
2017-11-27T04:59:55.079Z,3.62
2017-11-27T05:00:55.678Z,3.67
2017-11-27T05:01:56.288Z,3.64
2017-11-27T05:02:56.880Z,3.62
2017-11-27T05:03:57.466Z,3.60
2017-11-27T05:04:58.063Z,3.62
2017-11-27T05:05:58.659Z,3.70
2017-11-27T05:06:59.248Z,3.75
2017-11-27T05:07:59.843Z,3.81
2017-11-27T05:09:00.443Z,3.90
2017-11-27T05:10:01.042Z,3.93
2017-11-27T05:11:01.638Z,3.87
2017-11-27T05:12:02.235Z,4.03
2017-11-27T05:13:02.836Z,4.03
2017-11-27T05:14:03.444Z,4.02
2017-11-27T05:15:04.056Z,4.06
2017-11-27T05:16:04.657Z,4.08
2017-11-27T05:17:05.256Z,4.14
2017-11-27T05:18:05.869Z,4.16
2017-11-27T05:19:06.468Z,4.21
2017-11-27T05:20:07.066Z,4.16
2017-11-27T05:21:07.653Z,4.14
2017-11-27T05:22:08.249Z,4.28
2017-11-27T05:23:08.847Z,4.27
2017-11-27T05:24:09.450Z,4.38
2017-11-27T05:25:10.046Z,4.32
2017-11-27T05:26:10.645Z,4.31
2017-11-27T05:27:11.249Z,4.39
2017-11-27T05:28:11.860Z,4.27
2017-11-27T05:29:12.451Z,4.42
2017-11-27T05:30:13.052Z,4.38
2017-11-27T05:31:13.647Z,4.44
2017-11-27T05:32:14.252Z,4.45
2017-11-27T05:33:14.835Z,4.46
2017-11-27T05:34:15.438Z,4.44
2017-11-27T05:35:16.048Z,4.39
2017-11-27T05:36:16.647Z,4.45
2017-11-27T05:37:17.238Z,4.48
2017-11-27T05:38:17.849Z,4.50
2017-11-27T05:39:18.441Z,4.56
2017-11-27T05:40:19.054Z,4.53
2017-11-27T05:41:19.642Z,4.57
2017-11-27T05:42:20.250Z,4.59
2017-11-27T05:43:20.864Z,4.56
2017-11-27T05:44:21.480Z,4.63
2017-11-27T05:45:22.075Z,4.63
2017-11-27T05:46:22.665Z,4.62
2017-11-27T05:47:23.265Z,4.57
2017-11-27T05:48:23.863Z,4.72
2017-11-27T05:49:24.478Z,4.74
2017-11-27T05:50:25.083Z,4.82
2017-11-27T05:51:25.680Z,4.90
2017-11-27T05:52:26.284Z,4.83
2017-11-27T05:53:26.872Z,4.83
2017-11-27T05:54:27.482Z,4.85
2017-11-27T05:55:28.080Z,4.91
2017-11-27T05:56:28.685Z,4.89
2017-11-27T05:57:29.324Z,4.93
2017-11-27T05:58:29.876Z,4.96
2017-11-27T05:59:30.480Z,4.93
2017-11-27T06:00:31.081Z,4.97
2017-11-27T06:01:31.667Z,5.01
2017-11-27T06:02:32.271Z,5.00
2017-11-27T06:03:32.881Z,4.99
2017-11-27T06:04:33.477Z,5.00
2017-11-27T06:05:34.090Z,5.14
2017-11-27T06:06:34.690Z,5.09
2017-11-27T06:07:35.300Z,5.08
2017-11-27T06:08:35.910Z,5.11
2017-11-27T06:09:36.515Z,5.11
2017-11-27T06:10:37.114Z,5.08
2017-11-27T06:11:37.730Z,5.11
2017-11-27T06:12:38.320Z,5.09
2017-11-27T06:13:38.930Z,5.19
2017-11-27T06:14:39.522Z,5.18
2017-11-27T06:15:40.120Z,5.22
2017-11-27T06:16:40.727Z,5.22
2017-11-27T06:17:41.328Z,5.32
2017-11-27T06:18:41.925Z,5.29
2017-11-27T06:19:42.529Z,5.29
2017-11-27T06:20:43.120Z,5.30
2017-11-27T06:21:43.724Z,5.26
2017-11-27T06:22:44.341Z,5.21
2017-11-27T06:23:44.932Z,5.32
2017-11-27T06:24:45.533Z,5.24
2017-11-27T06:25:46.137Z,5.21
2017-11-27T06:26:46.744Z,5.40
2017-11-27T06:27:47.332Z,5.24
2017-11-27T06:28:47.928Z,5.29
2017-11-27T06:29:48.542Z,5.37
2017-11-27T06:30:49.154Z,5.37
2017-11-27T06:31:49.745Z,5.37
2017-11-27T06:32:50.339Z,5.30
2017-11-27T06:33:50.930Z,5.32
2017-11-27T06:34:51.540Z,5.34
2017-11-27T06:35:52.130Z,5.26
2017-11-27T06:36:52.722Z,5.32
2017-11-27T06:37:53.320Z,5.29
2017-11-27T06:38:53.919Z,5.32
2017-11-27T06:39:54.516Z,5.34
2017-11-27T06:40:55.121Z,5.30
2017-11-27T06:41:55.719Z,5.32
2017-11-27T06:42:56.328Z,5.40
2017-11-27T06:43:56.921Z,5.34
2017-11-27T06:44:57.513Z,5.33
2017-11-27T06:45:58.112Z,5.32
2017-11-27T06:46:58.709Z,5.34
2017-11-27T06:47:59.307Z,5.34
2017-11-27T06:48:59.921Z,5.40
2017-11-27T06:50:00.518Z,5.27
2017-11-27T06:51:01.110Z,5.42
2017-11-27T06:52:01.705Z,5.30
2017-11-27T06:53:02.301Z,5.39
2017-11-27T06:54:02.891Z,5.34
2017-11-27T06:55:03.500Z,5.39
2017-11-27T06:56:04.119Z,5.32
2017-11-27T06:57:04.729Z,5.30
2017-11-27T06:58:05.328Z,5.26
2017-11-27T06:59:05.936Z,5.26
2017-11-27T07:00:06.532Z,5.33
2017-11-27T07:01:07.135Z,5.32
2017-11-27T07:02:07.738Z,5.37
2017-11-27T07:03:08.340Z,5.30
2017-11-27T07:04:08.943Z,5.33
2017-11-27T07:05:09.567Z,5.33
2017-11-27T07:06:10.154Z,5.32
2017-11-27T07:07:10.754Z,5.32
2017-11-27T07:08:11.364Z,5.27
2017-11-27T07:09:11.959Z,5.37
2017-11-27T07:10:12.557Z,5.33
2017-11-27T07:11:13.170Z,5.33
2017-11-27T07:12:13.778Z,5.26
2017-11-27T07:13:14.385Z,5.34
2017-11-27T07:14:14.995Z,5.45
2017-11-27T07:15:15.596Z,5.33
2017-11-27T07:16:16.199Z,5.34
2017-11-27T07:17:16.800Z,5.39
2017-11-27T07:18:17.412Z,5.37
2017-11-27T07:19:18.021Z,5.26
2017-11-27T07:20:18.628Z,5.21
2017-11-27T07:21:19.235Z,5.29
2017-11-27T07:22:19.857Z,5.26
2017-11-27T07:23:20.446Z,5.34
2017-11-27T07:24:21.045Z,5.34
2017-11-27T07:25:21.664Z,5.33
2017-11-27T07:26:22.261Z,5.33
2017-11-27T07:27:22.880Z,5.24
2017-11-27T07:28:23.498Z,5.39
2017-11-27T07:29:24.095Z,5.36
2017-11-27T07:30:24.705Z,5.33
2017-11-27T07:31:25.318Z,5.33
2017-11-27T07:32:25.934Z,5.27
2017-11-27T07:33:26.532Z,5.29
2017-11-27T07:34:27.137Z,5.21
2017-11-27T07:35:27.749Z,5.24
2017-11-27T07:36:28.367Z,5.29
2017-11-27T07:37:28.985Z,5.27
2017-11-27T07:38:29.585Z,5.33
2017-11-27T07:39:30.196Z,5.30
2017-11-27T07:40:30.801Z,5.27
2017-11-27T07:41:31.403Z,5.30
2017-11-27T07:42:31.988Z,5.39
2017-11-27T07:43:32.601Z,5.39
2017-11-27T07:44:33.207Z,5.34
2017-11-27T07:45:33.819Z,5.32
2017-11-27T07:46:34.411Z,5.32
2017-11-27T07:47:35.012Z,5.32
2017-11-27T07:48:35.633Z,5.30
2017-11-27T07:49:36.244Z,5.29
2017-11-27T07:50:36.852Z,5.32
2017-11-27T07:51:37.450Z,5.34
2017-11-27T07:52:38.048Z,5.32
2017-11-27T07:53:38.673Z,5.32
2017-11-27T07:54:39.287Z,5.44
2017-11-27T07:55:39.898Z,5.37
2017-11-27T07:56:40.509Z,5.42
2017-11-27T07:57:41.117Z,5.37
2017-11-27T07:58:41.712Z,5.42
2017-11-27T07:59:42.322Z,5.44
2017-11-27T08:00:42.919Z,5.47
2017-11-27T08:01:43.524Z,5.48
2017-11-27T08:02:44.123Z,5.47
2017-11-27T08:03:44.744Z,5.45
2017-11-27T08:04:45.351Z,5.45
2017-11-27T08:05:45.951Z,5.48
2017-11-27T08:06:46.544Z,5.48
2017-11-27T08:07:47.145Z,5.44
2017-11-27T08:08:47.755Z,5.44
2017-11-27T08:09:48.357Z,5.48
2017-11-27T08:10:48.952Z,5.48
2017-11-27T08:11:49.565Z,5.42
2017-11-27T08:12:50.172Z,5.55
2017-11-27T08:13:50.781Z,5.52
2017-11-27T08:14:51.393Z,5.54
2017-11-27T08:15:51.997Z,5.60
2017-11-27T08:16:52.607Z,5.58
2017-11-27T08:17:53.216Z,5.61
2017-11-27T08:18:53.818Z,5.60
2017-11-27T08:19:54.429Z,5.61
2017-11-27T08:20:55.029Z,5.60
2017-11-27T08:21:55.642Z,5.63
2017-11-27T08:22:56.253Z,5.65
2017-11-27T08:23:56.848Z,5.55
2017-11-27T08:24:57.442Z,5.70
2017-11-27T08:25:58.051Z,5.66
2017-11-27T08:26:58.654Z,5.65
2017-11-27T08:27:59.262Z,5.68
2017-11-27T08:28:59.876Z,5.76
2017-11-27T08:30:00.465Z,5.68
2017-11-27T08:31:01.081Z,5.70
2017-11-27T08:32:01.679Z,5.79
2017-11-27T08:33:02.292Z,5.79
2017-11-27T08:34:02.889Z,5.87
2017-11-27T08:35:03.491Z,5.81
2017-11-27T08:36:04.093Z,5.90
2017-11-27T08:37:04.699Z,5.86
2017-11-27T08:38:05.309Z,5.91
2017-11-27T08:39:05.931Z,5.96
2017-11-27T08:40:06.541Z,5.90
2017-11-27T08:41:07.158Z,5.97
2017-11-27T08:42:07.755Z,5.93
2017-11-27T08:43:08.371Z,6.02
2017-11-27T08:44:08.986Z,6.08
2017-11-27T08:45:09.604Z,5.99
2017-11-27T08:46:10.202Z,6.05
2017-11-27T08:47:10.814Z,6.06
2017-11-27T08:48:11.408Z,6.09
2017-11-27T08:49:12.012Z,6.13
2017-11-27T08:50:12.632Z,6.08
2017-11-27T08:51:13.240Z,6.05
2017-11-27T08:52:13.859Z,6.13
2017-11-27T08:53:14.470Z,6.20
2017-11-27T08:54:15.076Z,6.09
2017-11-27T08:55:15.688Z,6.15
2017-11-27T08:56:16.276Z,6.22
2017-11-27T08:57:16.888Z,6.25
2017-11-27T08:58:17.501Z,6.25
2017-11-27T08:59:18.127Z,6.27
2017-11-27T09:00:18.751Z,6.25
2017-11-27T09:01:19.370Z,6.34
2017-11-27T09:02:19.970Z,6.32
2017-11-27T09:03:20.587Z,6.30
2017-11-27T09:04:21.198Z,6.28
2017-11-27T09:05:21.812Z,6.25
2017-11-27T09:06:22.418Z,6.39
2017-11-27T09:07:23.036Z,6.45
2017-11-27T09:08:23.642Z,6.43
2017-11-27T09:09:24.251Z,6.39
2017-11-27T09:10:24.857Z,6.45
2017-11-27T09:11:25.480Z,6.42
2017-11-27T09:12:26.107Z,6.52
2017-11-27T09:13:26.733Z,6.53
2017-11-27T09:14:27.371Z,6.60
2017-11-27T09:15:28.004Z,6.53
2017-11-27T09:16:28.615Z,6.66
2017-11-27T09:17:29.233Z,6.64
2017-11-27T09:18:29.865Z,6.64
2017-11-27T09:19:30.467Z,6.66
2017-11-27T09:20:31.075Z,6.68
2017-11-27T09:21:31.682Z,6.73
2017-11-27T09:22:32.302Z,6.73
2017-11-27T09:23:32.922Z,6.67
2017-11-27T09:24:33.555Z,6.66
2017-11-27T09:25:34.184Z,6.71
2017-11-27T09:26:34.822Z,6.67
2017-11-27T09:27:35.422Z,6.73
2017-11-27T09:28:36.042Z,6.67
2017-11-27T09:29:36.661Z,6.61
2017-11-27T09:30:37.278Z,6.76
2017-11-27T09:31:37.872Z,6.63
2017-11-27T09:32:38.487Z,6.71
2017-11-27T09:33:39.109Z,6.68
2017-11-27T09:34:39.732Z,6.73
2017-11-27T09:35:40.345Z,6.75
2017-11-27T09:36:40.963Z,6.73
2017-11-27T09:37:41.567Z,6.76
2017-11-27T09:38:42.186Z,6.68
2017-11-27T09:39:42.819Z,6.76
2017-11-27T09:40:43.426Z,6.68
2017-11-27T09:41:44.039Z,6.79
2017-11-27T09:42:44.650Z,6.79
2017-11-27T09:43:45.267Z,6.76
2017-11-27T09:44:45.868Z,6.76
2017-11-27T09:45:46.470Z,6.75
2017-11-27T09:46:47.072Z,6.81
2017-11-27T09:47:47.691Z,6.79
2017-11-27T09:48:48.301Z,6.75
2017-11-27T09:49:48.921Z,6.76
2017-11-27T09:50:49.540Z,6.82
2017-11-27T09:51:50.156Z,6.73
2017-11-27T09:52:50.763Z,6.75
2017-11-27T09:53:51.382Z,6.79
2017-11-27T09:54:51.997Z,6.71
2017-11-27T09:55:52.604Z,6.79
2017-11-27T09:56:53.216Z,6.75
2017-11-27T09:57:53.832Z,6.76
2017-11-27T09:58:54.477Z,6.81
2017-11-27T09:59:55.073Z,6.81
2017-11-27T10:00:55.704Z,6.84
2017-11-27T10:01:56.321Z,6.86
2017-11-27T10:02:56.951Z,6.85
2017-11-27T10:03:57.571Z,6.85
2017-11-27T10:04:58.191Z,6.86
2017-11-27T10:05:58.795Z,6.86
2017-11-27T10:06:59.409Z,6.82
2017-11-27T10:08:00.026Z,6.82
2017-11-27T10:09:00.638Z,6.85
2017-11-27T10:10:01.259Z,6.86
2017-11-27T10:11:01.883Z,6.86
2017-11-27T10:12:02.500Z,6.85
2017-11-27T10:13:03.099Z,6.88
2017-11-27T10:14:03.698Z,6.86
2017-11-27T10:15:04.307Z,6.89
2017-11-27T10:16:04.924Z,6.96
2017-11-27T10:17:05.531Z,6.85
2017-11-27T10:18:06.153Z,6.84
2017-11-27T10:19:06.753Z,6.84
2017-11-27T10:20:07.373Z,6.89
2017-11-27T10:21:07.984Z,6.84
2017-11-27T10:22:08.604Z,6.84
2017-11-27T10:23:09.206Z,6.84
2017-11-27T10:24:09.809Z,6.85
2017-11-27T10:25:10.411Z,6.85
2017-11-27T10:26:11.034Z,6.81
2017-11-27T10:27:11.655Z,6.81
2017-11-27T10:28:12.271Z,6.82
2017-11-27T10:29:12.886Z,6.75
2017-11-27T10:30:13.496Z,6.81
2017-11-27T10:31:14.126Z,6.79
2017-11-27T10:32:14.734Z,6.76
2017-11-27T10:33:15.333Z,6.71
2017-11-27T10:34:15.946Z,6.82
2017-11-27T10:35:16.558Z,6.76
2017-11-27T10:36:17.178Z,6.76
2017-11-27T10:37:17.782Z,6.73
2017-11-27T10:38:18.408Z,6.75
2017-11-27T10:39:19.053Z,6.86
2017-11-27T10:40:19.709Z,6.81
2017-11-27T10:41:20.363Z,6.75
2017-11-27T10:42:20.954Z,6.82
2017-11-27T10:43:21.571Z,6.71
2017-11-27T10:44:22.193Z,6.78
2017-11-27T10:45:22.813Z,6.81
2017-11-27T10:46:23.432Z,6.79
2017-11-27T10:47:24.032Z,6.82
2017-11-27T10:48:24.635Z,6.63
2017-11-27T10:49:25.248Z,6.66
2017-11-27T10:50:25.849Z,6.71
2017-11-27T10:51:26.486Z,6.70
2017-11-27T10:52:27.078Z,6.60
2017-11-27T10:53:27.695Z,6.82
2017-11-27T10:54:28.296Z,6.66
2017-11-27T10:55:28.913Z,6.66
2017-11-27T10:56:29.514Z,6.71
2017-11-27T10:57:30.145Z,6.63
2017-11-27T10:58:30.776Z,6.64
2017-11-27T10:59:31.388Z,6.66
2017-11-27T11:00:32.017Z,6.68
2017-11-27T11:01:32.626Z,6.79
2017-11-27T11:02:33.254Z,6.66
2017-11-27T11:03:33.876Z,6.67
2017-11-27T11:04:34.475Z,6.63
2017-11-27T11:05:35.091Z,6.63
2017-11-27T11:06:35.707Z,6.71
2017-11-27T11:07:36.323Z,6.66
2017-11-27T11:08:36.950Z,6.66
2017-11-27T11:09:37.561Z,6.64
2017-11-27T11:10:38.185Z,6.64
2017-11-27T11:11:38.814Z,6.60
2017-11-27T11:12:39.449Z,6.67
2017-11-27T11:13:40.074Z,6.64
2017-11-27T11:14:40.700Z,6.61
2017-11-27T11:15:41.330Z,6.68
2017-11-27T11:16:42.154Z,6.67
2017-11-27T11:17:42.771Z,6.68
2017-11-27T11:18:43.370Z,6.66
2017-11-27T11:19:43.978Z,6.70
2017-11-27T11:20:44.592Z,6.67
2017-11-27T11:21:45.206Z,6.79
2017-11-27T11:22:45.833Z,6.75
2017-11-27T11:23:46.432Z,6.81
2017-11-27T11:24:47.044Z,6.70
2017-11-27T11:25:47.658Z,6.81
2017-11-27T11:26:48.264Z,6.79
2017-11-27T11:27:48.868Z,6.81
2017-11-27T11:28:49.475Z,6.79
2017-11-27T11:29:50.073Z,6.79
2017-11-27T11:30:50.917Z,6.82
2017-11-27T11:31:51.530Z,6.78
2017-11-27T11:32:52.134Z,6.79
2017-11-27T11:33:52.760Z,6.84
2017-11-27T11:34:53.377Z,6.79
2017-11-27T11:35:53.990Z,6.82
2017-11-27T11:36:54.825Z,6.79
2017-11-27T11:37:55.434Z,6.82
2017-11-27T11:38:56.030Z,6.82
2017-11-27T11:39:56.635Z,6.79
2017-11-27T11:40:57.241Z,6.84
2017-11-27T11:41:57.839Z,6.81
2017-11-27T11:42:58.448Z,6.78
2017-11-27T11:43:59.060Z,6.75
2017-11-27T11:44:59.655Z,6.85
2017-11-27T11:46:00.268Z,6.85
2017-11-27T11:47:00.889Z,6.85
2017-11-27T11:48:01.496Z,6.85
2017-11-27T11:49:02.089Z,6.84
2017-11-27T11:50:02.695Z,6.84
2017-11-27T11:51:03.306Z,6.84
2017-11-27T11:52:03.946Z,6.85
2017-11-27T11:53:04.517Z,6.86
2017-11-27T11:54:05.119Z,6.85
2017-11-27T11:55:05.718Z,6.86
2017-11-27T11:56:06.324Z,6.88
2017-11-27T11:57:06.928Z,6.88
2017-11-27T11:58:07.544Z,6.89
2017-11-27T11:59:08.157Z,6.82
2017-11-27T12:00:08.779Z,6.81
2017-11-27T12:01:09.378Z,6.86
2017-11-27T12:02:09.993Z,6.81
2017-11-27T12:03:10.596Z,6.89
2017-11-27T12:04:11.211Z,6.86
2017-11-27T12:05:11.833Z,6.81
2017-11-27T12:06:12.441Z,6.92
2017-11-27T12:07:13.068Z,6.82
2017-11-27T12:08:13.690Z,6.86
2017-11-27T12:09:14.310Z,6.86
2017-11-27T12:10:14.923Z,6.89
2017-11-27T12:11:15.529Z,6.84
2017-11-27T12:12:16.146Z,6.86
2017-11-27T12:13:16.755Z,6.79
2017-11-27T12:14:17.367Z,6.88
2017-11-27T12:15:17.980Z,6.85
2017-11-27T12:16:18.598Z,6.85
2017-11-27T12:17:19.214Z,6.89
2017-11-27T12:18:19.862Z,6.96
2017-11-27T12:19:20.469Z,6.86
2017-11-27T12:20:21.096Z,6.97
2017-11-27T12:21:21.717Z,6.94
2017-11-27T12:22:22.323Z,6.89
2017-11-27T12:23:22.938Z,6.92
2017-11-27T12:24:23.535Z,6.92
2017-11-27T12:25:24.137Z,6.91
2017-11-27T12:26:24.759Z,6.82
2017-11-27T12:27:25.364Z,6.88
2017-11-27T12:28:25.967Z,6.86
2017-11-27T12:29:26.582Z,6.84
2017-11-27T12:30:27.183Z,6.91
2017-11-27T12:31:27.797Z,6.86
2017-11-27T12:32:28.401Z,6.99
2017-11-27T12:33:29.026Z,6.82
2017-11-27T12:34:29.641Z,6.86
2017-11-27T12:35:30.267Z,6.89
2017-11-27T12:36:30.892Z,6.86
2017-11-27T12:37:31.495Z,6.86
2017-11-27T12:38:32.120Z,6.85
2017-11-27T12:39:32.754Z,6.79
2017-11-27T12:40:33.368Z,6.81
2017-11-27T12:41:33.980Z,6.91
2017-11-27T12:42:34.599Z,6.97
2017-11-27T12:43:35.204Z,6.91
2017-11-27T12:44:35.819Z,6.91
2017-11-27T12:45:36.426Z,6.82
2017-11-27T12:46:37.029Z,6.96
2017-11-27T12:47:37.642Z,6.97
2017-11-27T12:48:38.254Z,6.97
2017-11-27T12:49:38.855Z,6.84
2017-11-27T12:50:39.467Z,6.97
2017-11-27T12:51:40.067Z,6.91
2017-11-27T12:52:40.685Z,6.97
2017-11-27T12:53:41.295Z,6.96
2017-11-27T12:54:41.904Z,7.02
2017-11-27T12:55:42.502Z,6.96
2017-11-27T12:56:43.123Z,7.00
2017-11-27T12:57:43.729Z,6.97
2017-11-27T12:58:44.352Z,6.99
2017-11-27T12:59:44.952Z,6.91
2017-11-27T13:00:45.574Z,6.94
2017-11-27T13:01:46.204Z,6.96
2017-11-27T13:02:46.893Z,6.99
2017-11-27T13:03:47.495Z,7.02
2017-11-27T13:04:48.109Z,7.03
2017-11-27T13:05:48.714Z,7.03
2017-11-27T13:06:49.350Z,7.02
2017-11-27T13:07:49.952Z,7.02
2017-11-27T13:08:50.577Z,7.00
2017-11-27T13:09:51.199Z,7.02
2017-11-27T13:10:51.821Z,6.99
2017-11-27T13:11:52.453Z,7.03
2017-11-27T13:12:53.314Z,6.99
2017-11-27T13:13:53.946Z,7.02
2017-11-27T13:14:54.577Z,6.96
2017-11-27T13:15:55.204Z,6.99
2017-11-27T13:16:55.816Z,7.04
2017-11-27T13:17:56.434Z,6.94
2017-11-27T13:18:57.063Z,7.04
2017-11-27T13:19:57.690Z,7.03
2017-11-27T13:20:58.419Z,6.94
2017-11-27T13:21:59.102Z,7.00
2017-11-27T13:22:59.712Z,7.04
2017-11-27T13:24:00.367Z,7.06
2017-11-27T13:25:00.993Z,7.04
2017-11-27T13:26:01.672Z,6.97
2017-11-27T13:27:02.257Z,7.07